sensor_id;sensor_type;location;lat;lon;timestamp;P1;durP1;ratioP1;P2;durP2;ratioP2
34984;SDS011;21190;58.750;17.004;2023-04-28T00:01:42;2.25;;;1.40;;
34984;SDS011;21190;58.750;17.004;2023-04-28T00:04:09;1.25;;;0.80;;
34984;SDS011;21190;58.750;17.004;2023-04-28T00:06:37;0.80;;;0.80;;
34984;SDS011;21190;58.750;17.004;2023-04-28T00:09:04;2.10;;;0.93;;
34984;SDS011;21190;58.750;17.004;2023-04-28T00:11:33;1.52;;;1.00;;
34984;SDS011;21190;58.750;17.004;2023-04-28T00:13:59;1.20;;;0.75;;
34984;SDS011;21190;58.750;17.004;2023-04-28T00:16:26;3.72;;;0.80;;
34984;SDS011;21190;58.750;17.004;2023-04-28T00:18:53;3.63;;;0.73;;
34984;SDS011;21190;58.750;17.004;2023-04-28T00:21:21;3.03;;;0.73;;
34984;SDS011;21190;58.750;17.004;2023-04-28T00:23:48;0.63;;;0.60;;
34984;SDS011;21190;58.750;17.004;2023-04-28T00:26:15;0.35;;;0.35;;
34984;SDS011;21190;58.750;17.004;2023-04-28T00:28:42;1.05;;;0.57;;
34984;SDS011;21190;58.750;17.004;2023-04-28T00:31:10;1.77;;;0.40;;
34984;SDS011;21190;58.750;17.004;2023-04-28T00:33:41;1.23;;;0.60;;
34984;SDS011;21190;58.750;17.004;2023-04-28T00:36:09;1.35;;;0.85;;
34984;SDS011;21190;58.750;17.004;2023-04-28T00:38:36;0.90;;;0.80;;
34984;SDS011;21190;58.750;17.004;2023-04-28T00:41:03;5.30;;;0.98;;
34984;SDS011;21190;58.750;17.004;2023-04-28T00:43:31;3.03;;;1.50;;
34984;SDS011;21190;58.750;17.004;2023-04-28T00:45:57;4.38;;;1.60;;
34984;SDS011;21190;58.750;17.004;2023-04-28T00:48:25;4.38;;;1.90;;
34984;SDS011;21190;58.750;17.004;2023-04-28T00:50:52;3.90;;;1.48;;
34984;SDS011;21190;58.750;17.004;2023-04-28T00:53:19;8.95;;;1.88;;
34984;SDS011;21190;58.750;17.004;2023-04-28T00:55:47;3.78;;;2.47;;
34984;SDS011;21190;58.750;17.004;2023-04-28T00:58:16;10.68;;;3.30;;
34984;SDS011;21190;58.750;17.004;2023-04-28T01:00:43;7.97;;;3.58;;
34984;SDS011;21190;58.750;17.004;2023-04-28T01:03:09;6.30;;;3.67;;
34984;SDS011;21190;58.750;17.004;2023-04-28T01:05:37;11.75;;;5.57;;
34984;SDS011;21190;58.750;17.004;2023-04-28T01:08:04;8.10;;;5.55;;
34984;SDS011;21190;58.750;17.004;2023-04-28T01:10:31;12.30;;;6.47;;
34984;SDS011;21190;58.750;17.004;2023-04-28T01:12:58;10.63;;;5.72;;
34984;SDS011;21190;58.750;17.004;2023-04-28T01:15:25;12.40;;;6.10;;
34984;SDS011;21190;58.750;17.004;2023-04-28T01:17:52;9.68;;;5.90;;
34984;SDS011;21190;58.750;17.004;2023-04-28T01:20:20;11.27;;;5.70;;
34984;SDS011;21190;58.750;17.004;2023-04-28T01:22:47;7.25;;;4.40;;
34984;SDS011;21190;58.750;17.004;2023-04-28T01:25:14;7.43;;;3.63;;
34984;SDS011;21190;58.750;17.004;2023-04-28T01:27:41;5.72;;;2.92;;
34984;SDS011;21190;58.750;17.004;2023-04-28T01:30:08;6.55;;;1.90;;
34984;SDS011;21190;58.750;17.004;2023-04-28T01:32:35;2.72;;;1.88;;
34984;SDS011;21190;58.750;17.004;2023-04-28T01:35:02;3.78;;;1.40;;
34984;SDS011;21190;58.750;17.004;2023-04-28T01:37:29;2.13;;;1.45;;
34984;SDS011;21190;58.750;17.004;2023-04-28T01:39:56;2.97;;;1.65;;
34984;SDS011;21190;58.750;17.004;2023-04-28T01:42:23;3.28;;;2.15;;
34984;SDS011;21190;58.750;17.004;2023-04-28T01:44:50;5.15;;;2.60;;
34984;SDS011;21190;58.750;17.004;2023-04-28T01:47:17;3.08;;;2.15;;
34984;SDS011;21190;58.750;17.004;2023-04-28T01:49:44;5.20;;;1.65;;
34984;SDS011;21190;58.750;17.004;2023-04-28T01:52:13;3.47;;;1.13;;
34984;SDS011;21190;58.750;17.004;2023-04-28T01:54:40;1.38;;;1.13;;
34984;SDS011;21190;58.750;17.004;2023-04-28T01:57:06;2.22;;;1.10;;
34984;SDS011;21190;58.750;17.004;2023-04-28T01:59:33;1.48;;;0.90;;
34984;SDS011;21190;58.750;17.004;2023-04-28T02:02:00;6.40;;;1.08;;
34984;SDS011;21190;58.750;17.004;2023-04-28T02:04:27;2.67;;;0.88;;
34984;SDS011;21190;58.750;17.004;2023-04-28T02:06:54;2.03;;;1.48;;
34984;SDS011;21190;58.750;17.004;2023-04-28T02:09:21;1.30;;;0.80;;
34984;SDS011;21190;58.750;17.004;2023-04-28T02:11:48;1.30;;;0.60;;
34984;SDS011;21190;58.750;17.004;2023-04-28T02:14:15;2.75;;;0.55;;
34984;SDS011;21190;58.750;17.004;2023-04-28T02:16:43;0.60;;;0.40;;
34984;SDS011;21190;58.750;17.004;2023-04-28T02:19:09;1.55;;;0.50;;
34984;SDS011;21190;58.750;17.004;2023-04-28T02:21:36;2.17;;;0.50;;
34984;SDS011;21190;58.750;17.004;2023-04-28T02:24:03;2.70;;;0.60;;
34984;SDS011;21190;58.750;17.004;2023-04-28T02:26:32;0.35;;;0.35;;
34984;SDS011;21190;58.750;17.004;2023-04-28T02:28:59;1.73;;;0.40;;
34984;SDS011;21190;58.750;17.004;2023-04-28T02:31:26;2.22;;;0.50;;
34984;SDS011;21190;58.750;17.004;2023-04-28T02:33:53;0.30;;;0.30;;
34984;SDS011;21190;58.750;17.004;2023-04-28T02:36:20;0.38;;;0.28;;
34984;SDS011;21190;58.750;17.004;2023-04-28T02:38:47;0.57;;;0.45;;
34984;SDS011;21190;58.750;17.004;2023-04-28T02:41:14;1.70;;;1.00;;
34984;SDS011;21190;58.750;17.004;2023-04-28T02:43:41;2.25;;;1.60;;
34984;SDS011;21190;58.750;17.004;2023-04-28T02:46:08;4.40;;;2.13;;
34984;SDS011;21190;58.750;17.004;2023-04-28T02:48:35;4.82;;;2.80;;
34984;SDS011;21190;58.750;17.004;2023-04-28T02:51:02;6.30;;;3.13;;
34984;SDS011;21190;58.750;17.004;2023-04-28T02:53:29;5.13;;;2.58;;
34984;SDS011;21190;58.750;17.004;2023-04-28T02:55:56;6.07;;;2.63;;
34984;SDS011;21190;58.750;17.004;2023-04-28T02:58:23;4.45;;;1.95;;
34984;SDS011;21190;58.750;17.004;2023-04-28T03:00:50;6.50;;;2.60;;
34984;SDS011;21190;58.750;17.004;2023-04-28T03:03:17;9.90;;;3.33;;
34984;SDS011;21190;58.750;17.004;2023-04-28T03:05:44;7.57;;;3.10;;
34984;SDS011;21190;58.750;17.004;2023-04-28T03:08:11;2.72;;;1.52;;
34984;SDS011;21190;58.750;17.004;2023-04-28T03:10:38;5.30;;;1.45;;
34984;SDS011;21190;58.750;17.004;2023-04-28T03:13:05;1.40;;;0.95;;
34984;SDS011;21190;58.750;17.004;2023-04-28T03:15:32;2.42;;;0.70;;
34984;SDS011;21190;58.750;17.004;2023-04-28T03:17:59;1.05;;;0.50;;
34984;SDS011;21190;58.750;17.004;2023-04-28T03:20:26;1.20;;;0.63;;
34984;SDS011;21190;58.750;17.004;2023-04-28T03:22:53;0.40;;;0.40;;
34984;SDS011;21190;58.750;17.004;2023-04-28T03:25:20;0.95;;;0.60;;
34984;SDS011;21190;58.750;17.004;2023-04-28T03:27:47;0.40;;;0.40;;
34984;SDS011;21190;58.750;17.004;2023-04-28T03:30:14;2.17;;;0.52;;
34984;SDS011;21190;58.750;17.004;2023-04-28T03:32:41;1.48;;;0.60;;
34984;SDS011;21190;58.750;17.004;2023-04-28T03:35:08;0.60;;;0.40;;
34984;SDS011;21190;58.750;17.004;2023-04-28T03:37:35;0.32;;;0.22;;
34984;SDS011;21190;58.750;17.004;2023-04-28T03:40:02;2.80;;;0.32;;
34984;SDS011;21190;58.750;17.004;2023-04-28T03:42:29;1.00;;;0.60;;
34984;SDS011;21190;58.750;17.004;2023-04-28T03:44:56;1.38;;;0.40;;
34984;SDS011;21190;58.750;17.004;2023-04-28T03:47:23;2.83;;;0.52;;
34984;SDS011;21190;58.750;17.004;2023-04-28T03:49:50;1.45;;;0.50;;
34984;SDS011;21190;58.750;17.004;2023-04-28T03:52:17;1.70;;;0.70;;
34984;SDS011;21190;58.750;17.004;2023-04-28T03:54:44;2.05;;;0.50;;
34984;SDS011;21190;58.750;17.004;2023-04-28T03:57:11;2.22;;;0.60;;
34984;SDS011;21190;58.750;17.004;2023-04-28T03:59:38;1.08;;;0.50;;
34984;SDS011;21190;58.750;17.004;2023-04-28T04:02:05;2.20;;;0.57;;
34984;SDS011;21190;58.750;17.004;2023-04-28T04:04:32;0.80;;;0.50;;
34984;SDS011;21190;58.750;17.004;2023-04-28T04:06:59;2.50;;;0.50;;
34984;SDS011;21190;58.750;17.004;2023-04-28T04:09:27;2.35;;;0.50;;
34984;SDS011;21190;58.750;17.004;2023-04-28T04:11:54;0.88;;;0.45;;
34984;SDS011;21190;58.750;17.004;2023-04-28T04:14:21;7.20;;;0.73;;
34984;SDS011;21190;58.750;17.004;2023-04-28T04:16:48;1.70;;;0.57;;
34984;SDS011;21190;58.750;17.004;2023-04-28T04:19:15;0.95;;;0.60;;
34984;SDS011;21190;58.750;17.004;2023-04-28T04:21:42;6.00;;;0.77;;
34984;SDS011;21190;58.750;17.004;2023-04-28T04:24:09;2.38;;;0.47;;
34984;SDS011;21190;58.750;17.004;2023-04-28T04:26:35;1.75;;;0.50;;
34984;SDS011;21190;58.750;17.004;2023-04-28T04:29:02;2.03;;;0.70;;
34984;SDS011;21190;58.750;17.004;2023-04-28T04:31:29;1.33;;;0.47;;
34984;SDS011;21190;58.750;17.004;2023-04-28T04:33:57;0.50;;;0.30;;
34984;SDS011;21190;58.750;17.004;2023-04-28T04:36:23;0.50;;;0.50;;
34984;SDS011;21190;58.750;17.004;2023-04-28T04:38:50;0.70;;;0.50;;
34984;SDS011;21190;58.750;17.004;2023-04-28T04:41:19;0.80;;;0.50;;
34984;SDS011;21190;58.750;17.004;2023-04-28T04:43:47;1.73;;;0.60;;
34984;SDS011;21190;58.750;17.004;2023-04-28T04:46:14;1.92;;;0.45;;
34984;SDS011;21190;58.750;17.004;2023-04-28T04:48:41;1.88;;;0.65;;
34984;SDS011;21190;58.750;17.004;2023-04-28T04:51:08;1.33;;;0.70;;
34984;SDS011;21190;58.750;17.004;2023-04-28T04:53:35;2.25;;;0.52;;
34984;SDS011;21190;58.750;17.004;2023-04-28T04:56:02;1.55;;;0.47;;
34984;SDS011;21190;58.750;17.004;2023-04-28T04:58:30;2.03;;;0.68;;
34984;SDS011;21190;58.750;17.004;2023-04-28T05:00:57;2.20;;;0.60;;
34984;SDS011;21190;58.750;17.004;2023-04-28T05:03:25;1.73;;;0.70;;
34984;SDS011;21190;58.750;17.004;2023-04-28T05:05:52;4.03;;;0.50;;
34984;SDS011;21190;58.750;17.004;2023-04-28T05:08:19;0.95;;;0.50;;
34984;SDS011;21190;58.750;17.004;2023-04-28T05:10:46;0.82;;;0.38;;
34984;SDS011;21190;58.750;17.004;2023-04-28T05:13:13;1.00;;;0.43;;
34984;SDS011;21190;58.750;17.004;2023-04-28T05:15:40;1.23;;;0.30;;
34984;SDS011;21190;58.750;17.004;2023-04-28T05:18:07;3.92;;;0.80;;
34984;SDS011;21190;58.750;17.004;2023-04-28T05:20:36;2.95;;;0.52;;
34984;SDS011;21190;58.750;17.004;2023-04-28T05:23:03;2.63;;;0.57;;
34984;SDS011;21190;58.750;17.004;2023-04-28T05:25:31;2.00;;;0.50;;
34984;SDS011;21190;58.750;17.004;2023-04-28T05:27:58;6.95;;;0.57;;
34984;SDS011;21190;58.750;17.004;2023-04-28T05:30:30;1.08;;;0.60;;
34984;SDS011;21190;58.750;17.004;2023-04-28T05:32:57;0.43;;;0.38;;
34984;SDS011;21190;58.750;17.004;2023-04-28T05:35:24;0.47;;;0.40;;
34984;SDS011;21190;58.750;17.004;2023-04-28T05:37:51;9.00;;;0.80;;
34984;SDS011;21190;58.750;17.004;2023-04-28T05:40:18;1.27;;;0.50;;
34984;SDS011;21190;58.750;17.004;2023-04-28T05:42:45;2.95;;;0.63;;
34984;SDS011;21190;58.750;17.004;2023-04-28T05:45:12;0.68;;;0.47;;
34984;SDS011;21190;58.750;17.004;2023-04-28T05:47:40;4.18;;;0.65;;
34984;SDS011;21190;58.750;17.004;2023-04-28T05:50:07;5.47;;;0.73;;
34984;SDS011;21190;58.750;17.004;2023-04-28T05:52:35;2.22;;;0.55;;
34984;SDS011;21190;58.750;17.004;2023-04-28T05:55:01;2.78;;;0.52;;
34984;SDS011;21190;58.750;17.004;2023-04-28T05:57:28;1.30;;;0.60;;
34984;SDS011;21190;58.750;17.004;2023-04-28T06:00:07;5.82;;;0.50;;
34984;SDS011;21190;58.750;17.004;2023-04-28T06:02:34;1.25;;;0.45;;
34984;SDS011;21190;58.750;17.004;2023-04-28T06:05:01;1.13;;;0.70;;
34984;SDS011;21190;58.750;17.004;2023-04-28T06:07:29;7.18;;;0.47;;
34984;SDS011;21190;58.750;17.004;2023-04-28T06:09:56;4.07;;;1.70;;
34984;SDS011;21190;58.750;17.004;2023-04-28T06:12:23;2.67;;;0.50;;
34984;SDS011;21190;58.750;17.004;2023-04-28T06:14:50;1.00;;;0.45;;
34984;SDS011;21190;58.750;17.004;2023-04-28T06:17:20;7.97;;;0.88;;
34984;SDS011;21190;58.750;17.004;2023-04-28T06:19:47;0.43;;;0.43;;
34984;SDS011;21190;58.750;17.004;2023-04-28T06:22:16;2.05;;;0.73;;
34984;SDS011;21190;58.750;17.004;2023-04-28T06:24:43;2.97;;;0.70;;
34984;SDS011;21190;58.750;17.004;2023-04-28T06:27:10;4.57;;;0.90;;
34984;SDS011;21190;58.750;17.004;2023-04-28T06:29:38;1.15;;;0.50;;
34984;SDS011;21190;58.750;17.004;2023-04-28T06:32:05;4.07;;;1.38;;
34984;SDS011;21190;58.750;17.004;2023-04-28T06:34:32;3.28;;;0.75;;
34984;SDS011;21190;58.750;17.004;2023-04-28T06:37:00;3.92;;;1.15;;
34984;SDS011;21190;58.750;17.004;2023-04-28T06:39:27;0.93;;;0.52;;
34984;SDS011;21190;58.750;17.004;2023-04-28T06:41:54;1.52;;;0.85;;
34984;SDS011;21190;58.750;17.004;2023-04-28T06:44:20;1.42;;;0.63;;
34984;SDS011;21190;58.750;17.004;2023-04-28T06:46:48;0.52;;;0.52;;
34984;SDS011;21190;58.750;17.004;2023-04-28T06:49:15;2.97;;;0.50;;
34984;SDS011;21190;58.750;17.004;2023-04-28T06:51:42;3.60;;;0.70;;
34984;SDS011;21190;58.750;17.004;2023-04-28T06:54:09;1.85;;;0.52;;
34984;SDS011;21190;58.750;17.004;2023-04-28T06:56:36;0.70;;;0.50;;
34984;SDS011;21190;58.750;17.004;2023-04-28T06:59:03;2.75;;;0.75;;
34984;SDS011;21190;58.750;17.004;2023-04-28T07:01:30;3.80;;;0.50;;
34984;SDS011;21190;58.750;17.004;2023-04-28T07:03:57;1.23;;;0.68;;
34984;SDS011;21190;58.750;17.004;2023-04-28T07:06:24;0.57;;;0.40;;
34984;SDS011;21190;58.750;17.004;2023-04-28T07:08:52;0.43;;;0.30;;
34984;SDS011;21190;58.750;17.004;2023-04-28T07:11:20;0.98;;;0.57;;
34984;SDS011;21190;58.750;17.004;2023-04-28T07:13:48;3.97;;;0.52;;
34984;SDS011;21190;58.750;17.004;2023-04-28T07:16:17;0.77;;;0.55;;
34984;SDS011;21190;58.750;17.004;2023-04-28T07:18:44;0.95;;;0.50;;
34984;SDS011;21190;58.750;17.004;2023-04-28T07:21:11;0.93;;;0.52;;
34984;SDS011;21190;58.750;17.004;2023-04-28T07:23:38;2.00;;;0.95;;
34984;SDS011;21190;58.750;17.004;2023-04-28T07:26:06;1.15;;;0.77;;
34984;SDS011;21190;58.750;17.004;2023-04-28T07:28:33;0.73;;;0.68;;
34984;SDS011;21190;58.750;17.004;2023-04-28T07:31:00;0.30;;;0.30;;
34984;SDS011;21190;58.750;17.004;2023-04-28T07:33:27;2.70;;;0.40;;
34984;SDS011;21190;58.750;17.004;2023-04-28T07:35:54;0.75;;;0.40;;
34984;SDS011;21190;58.750;17.004;2023-04-28T07:38:21;3.83;;;0.80;;
34984;SDS011;21190;58.750;17.004;2023-04-28T07:40:48;6.32;;;0.30;;
34984;SDS011;21190;58.750;17.004;2023-04-28T07:43:20;0.82;;;0.50;;
34984;SDS011;21190;58.750;17.004;2023-04-28T07:45:47;0.95;;;0.30;;
34984;SDS011;21190;58.750;17.004;2023-04-28T07:48:15;0.32;;;0.32;;
34984;SDS011;21190;58.750;17.004;2023-04-28T07:50:42;2.35;;;0.40;;
34984;SDS011;21190;58.750;17.004;2023-04-28T07:53:09;0.30;;;0.22;;
34984;SDS011;21190;58.750;17.004;2023-04-28T07:55:36;1.83;;;0.30;;
34984;SDS011;21190;58.750;17.004;2023-04-28T07:58:03;1.80;;;0.40;;
34984;SDS011;21190;58.750;17.004;2023-04-28T08:00:31;3.30;;;0.20;;
34984;SDS011;21190;58.750;17.004;2023-04-28T08:02:57;2.83;;;0.52;;
34984;SDS011;21190;58.750;17.004;2023-04-28T08:05:25;0.85;;;0.30;;
34984;SDS011;21190;58.750;17.004;2023-04-28T08:07:52;5.75;;;0.50;;
34984;SDS011;21190;58.750;17.004;2023-04-28T08:10:19;0.95;;;0.57;;
34984;SDS011;21190;58.750;17.004;2023-04-28T08:12:46;2.17;;;0.52;;
34984;SDS011;21190;58.750;17.004;2023-04-28T08:15:13;0.30;;;0.30;;
34984;SDS011;21190;58.750;17.004;2023-04-28T08:17:43;4.95;;;0.40;;
34984;SDS011;21190;58.750;17.004;2023-04-28T08:20:10;1.17;;;0.30;;
34984;SDS011;21190;58.750;17.004;2023-04-28T08:22:37;0.20;;;0.20;;
34984;SDS011;21190;58.750;17.004;2023-04-28T08:25:04;0.30;;;0.30;;
34984;SDS011;21190;58.750;17.004;2023-04-28T08:27:31;0.30;;;0.20;;
34984;SDS011;21190;58.750;17.004;2023-04-28T08:29:59;0.50;;;0.30;;
34984;SDS011;21190;58.750;17.004;2023-04-28T08:32:26;2.40;;;0.38;;
34984;SDS011;21190;58.750;17.004;2023-04-28T08:34:53;0.63;;;0.30;;
34984;SDS011;21190;58.750;17.004;2023-04-28T08:37:20;0.93;;;0.28;;
34984;SDS011;21190;58.750;17.004;2023-04-28T08:39:47;0.40;;;0.40;;
34984;SDS011;21190;58.750;17.004;2023-04-28T08:42:14;0.93;;;0.30;;
34984;SDS011;21190;58.750;17.004;2023-04-28T08:44:43;1.83;;;0.30;;
34984;SDS011;21190;58.750;17.004;2023-04-28T08:47:11;0.35;;;0.25;;
34984;SDS011;21190;58.750;17.004;2023-04-28T08:49:39;0.38;;;0.30;;
34984;SDS011;21190;58.750;17.004;2023-04-28T08:52:10;0.30;;;0.22;;
34984;SDS011;21190;58.750;17.004;2023-04-28T08:54:39;1.27;;;0.57;;
34984;SDS011;21190;58.750;17.004;2023-04-28T08:57:08;0.50;;;0.50;;
34984;SDS011;21190;58.750;17.004;2023-04-28T08:59:37;0.30;;;0.30;;
34984;SDS011;21190;58.750;17.004;2023-04-28T09:02:06;1.98;;;0.30;;
34984;SDS011;21190;58.750;17.004;2023-04-28T09:04:34;0.77;;;0.50;;
34984;SDS011;21190;58.750;17.004;2023-04-28T09:07:02;1.05;;;0.50;;
34984;SDS011;21190;58.750;17.004;2023-04-28T09:09:29;0.25;;;0.20;;
34984;SDS011;21190;58.750;17.004;2023-04-28T09:12:01;0.20;;;0.20;;
34984;SDS011;21190;58.750;17.004;2023-04-28T09:14:31;0.95;;;0.30;;
34984;SDS011;21190;58.750;17.004;2023-04-28T09:17:00;0.40;;;0.40;;
34984;SDS011;21190;58.750;17.004;2023-04-28T09:19:35;0.40;;;0.40;;
34984;SDS011;21190;58.750;17.004;2023-04-28T09:22:03;0.73;;;0.40;;
34984;SDS011;21190;58.750;17.004;2023-04-28T09:24:50;2.55;;;1.13;;
34984;SDS011;21190;58.750;17.004;2023-04-28T09:27:19;2.28;;;0.40;;
34984;SDS011;21190;58.750;17.004;2023-04-28T09:29:54;0.25;;;0.20;;
34984;SDS011;21190;58.750;17.004;2023-04-28T09:32:22;0.73;;;0.30;;
34984;SDS011;21190;58.750;17.004;2023-04-28T09:34:51;0.30;;;0.30;;
34984;SDS011;21190;58.750;17.004;2023-04-28T09:37:20;1.45;;;0.55;;
34984;SDS011;21190;58.750;17.004;2023-04-28T09:39:57;0.55;;;0.38;;
34984;SDS011;21190;58.750;17.004;2023-04-28T09:42:30;3.90;;;0.60;;
34984;SDS011;21190;58.750;17.004;2023-04-28T09:45:03;0.35;;;0.20;;
34984;SDS011;21190;58.750;17.004;2023-04-28T09:47:35;1.65;;;0.82;;
34984;SDS011;21190;58.750;17.004;2023-04-28T09:50:05;0.25;;;0.20;;
34984;SDS011;21190;58.750;17.004;2023-04-28T09:52:36;0.43;;;0.20;;
34984;SDS011;21190;58.750;17.004;2023-04-28T09:55:04;1.85;;;0.35;;
34984;SDS011;21190;58.750;17.004;2023-04-28T09:57:34;4.35;;;1.50;;
34984;SDS011;21190;58.750;17.004;2023-04-28T10:00:02;2.17;;;0.40;;
34984;SDS011;21190;58.750;17.004;2023-04-28T10:02:35;1.20;;;0.40;;
34984;SDS011;21190;58.750;17.004;2023-04-28T10:05:07;1.52;;;0.30;;
34984;SDS011;21190;58.750;17.004;2023-04-28T10:07:36;0.93;;;0.50;;
34984;SDS011;21190;58.750;17.004;2023-04-28T10:10:05;1.10;;;0.35;;
34984;SDS011;21190;58.750;17.004;2023-04-28T10:12:33;1.63;;;0.30;;
34984;SDS011;21190;58.750;17.004;2023-04-28T10:15:04;0.30;;;0.20;;
34984;SDS011;21190;58.750;17.004;2023-04-28T10:17:32;0.17;;;0.10;;
34984;SDS011;21190;58.750;17.004;2023-04-28T10:20:02;0.30;;;0.22;;
34984;SDS011;21190;58.750;17.004;2023-04-28T10:25:28;1.50;;;0.45;;
34984;SDS011;21190;58.750;17.004;2023-04-28T10:27:58;0.75;;;0.40;;
34984;SDS011;21190;58.750;17.004;2023-04-28T10:30:26;1.02;;;0.20;;
34984;SDS011;21190;58.750;17.004;2023-04-28T10:35:44;1.10;;;0.90;;
34984;SDS011;21190;58.750;17.004;2023-04-28T10:38:13;0.32;;;0.20;;
34984;SDS011;21190;58.750;17.004;2023-04-28T10:40:42;0.10;;;0.10;;
34984;SDS011;21190;58.750;17.004;2023-04-28T10:43:32;5.00;;;0.98;;
34984;SDS011;21190;58.750;17.004;2023-04-28T10:46:03;0.43;;;0.30;;
34984;SDS011;21190;58.750;17.004;2023-04-28T10:56:21;0.22;;;0.15;;
34984;SDS011;21190;58.750;17.004;2023-04-28T11:01:38;0.57;;;0.20;;
34984;SDS011;21190;58.750;17.004;2023-04-28T11:04:15;1.50;;;0.30;;
34984;SDS011;21190;58.750;17.004;2023-04-28T11:06:44;0.68;;;0.28;;
34984;SDS011;21190;58.750;17.004;2023-04-28T11:14:36;1.60;;;0.30;;
34984;SDS011;21190;58.750;17.004;2023-04-28T11:17:07;0.35;;;0.35;;
34984;SDS011;21190;58.750;17.004;2023-04-28T11:19:37;1.75;;;0.20;;
34984;SDS011;21190;58.750;17.004;2023-04-28T11:22:12;0.20;;;0.20;;
34984;SDS011;21190;58.750;17.004;2023-04-28T11:24:56;0.22;;;0.22;;
34984;SDS011;21190;58.750;17.004;2023-04-28T11:27:26;0.15;;;0.10;;
34984;SDS011;21190;58.750;17.004;2023-04-28T11:29:57;0.43;;;0.20;;
34984;SDS011;21190;58.750;17.004;2023-04-28T11:32:32;2.28;;;0.40;;
34984;SDS011;21190;58.750;17.004;2023-04-28T11:35:00;0.60;;;0.30;;
34984;SDS011;21190;58.750;17.004;2023-04-28T11:37:28;0.22;;;0.10;;
34984;SDS011;21190;58.750;17.004;2023-04-28T11:39:55;0.73;;;0.30;;
34984;SDS011;21190;58.750;17.004;2023-04-28T11:42:22;0.30;;;0.10;;
34984;SDS011;21190;58.750;17.004;2023-04-28T11:44:53;0.77;;;0.20;;
34984;SDS011;21190;58.750;17.004;2023-04-28T11:47:29;0.63;;;0.20;;
34984;SDS011;21190;58.750;17.004;2023-04-28T11:49:58;0.47;;;0.35;;
34984;SDS011;21190;58.750;17.004;2023-04-28T11:52:26;6.40;;;0.50;;
34984;SDS011;21190;58.750;17.004;2023-04-28T11:54:54;3.05;;;0.52;;
34984;SDS011;21190;58.750;17.004;2023-04-28T11:57:26;1.05;;;0.20;;
34984;SDS011;21190;58.750;17.004;2023-04-28T12:00:10;3.10;;;0.43;;
34984;SDS011;21190;58.750;17.004;2023-04-28T12:02:39;0.28;;;0.20;;
34984;SDS011;21190;58.750;17.004;2023-04-28T12:05:07;0.25;;;0.25;;
34984;SDS011;21190;58.750;17.004;2023-04-28T12:07:41;0.55;;;0.30;;
34984;SDS011;21190;58.750;17.004;2023-04-28T12:10:10;0.90;;;0.10;;
34984;SDS011;21190;58.750;17.004;2023-04-28T12:12:38;0.40;;;0.40;;
34984;SDS011;21190;58.750;17.004;2023-04-28T12:15:17;0.60;;;0.20;;
34984;SDS011;21190;58.750;17.004;2023-04-28T12:17:46;0.20;;;0.20;;
34984;SDS011;21190;58.750;17.004;2023-04-28T12:20:36;0.30;;;0.20;;
34984;SDS011;21190;58.750;17.004;2023-04-28T12:23:04;1.85;;;0.30;;
34984;SDS011;21190;58.750;17.004;2023-04-28T12:25:31;0.22;;;0.20;;
34984;SDS011;21190;58.750;17.004;2023-04-28T12:28:01;3.42;;;0.20;;
34984;SDS011;21190;58.750;17.004;2023-04-28T12:30:30;0.28;;;0.25;;
34984;SDS011;21190;58.750;17.004;2023-04-28T12:33:41;0.20;;;0.10;;
34984;SDS011;21190;58.750;17.004;2023-04-28T12:36:04;0.93;;;0.15;;
34984;SDS011;21190;58.750;17.004;2023-04-28T12:38:32;0.10;;;0.10;;
34984;SDS011;21190;58.750;17.004;2023-04-28T12:40:59;6.60;;;0.40;;
34984;SDS011;21190;58.750;17.004;2023-04-28T12:43:25;3.42;;;0.30;;
34984;SDS011;21190;58.750;17.004;2023-04-28T12:45:54;1.70;;;0.20;;
34984;SDS011;21190;58.750;17.004;2023-04-28T12:48:22;0.82;;;0.20;;
34984;SDS011;21190;58.750;17.004;2023-04-28T12:50:50;0.68;;;0.20;;
34984;SDS011;21190;58.750;17.004;2023-04-28T12:53:17;0.13;;;0.10;;
34984;SDS011;21190;58.750;17.004;2023-04-28T12:55:44;4.07;;;0.50;;
34984;SDS011;21190;58.750;17.004;2023-04-28T12:58:11;1.27;;;0.30;;
34984;SDS011;21190;58.750;17.004;2023-04-28T13:00:38;5.68;;;0.17;;
34984;SDS011;21190;58.750;17.004;2023-04-28T13:03:07;1.17;;;0.10;;
34984;SDS011;21190;58.750;17.004;2023-04-28T13:05:34;0.22;;;0.20;;
34984;SDS011;21190;58.750;17.004;2023-04-28T13:08:01;0.45;;;0.30;;
34984;SDS011;21190;58.750;17.004;2023-04-28T13:10:28;0.25;;;0.20;;
34984;SDS011;21190;58.750;17.004;2023-04-28T13:12:56;2.20;;;0.50;;
34984;SDS011;21190;58.750;17.004;2023-04-28T13:15:22;0.20;;;0.20;;
34984;SDS011;21190;58.750;17.004;2023-04-28T13:17:50;1.25;;;0.50;;
34984;SDS011;21190;58.750;17.004;2023-04-28T13:20:17;1.48;;;0.45;;
34984;SDS011;21190;58.750;17.004;2023-04-28T13:22:44;0.82;;;0.20;;
34984;SDS011;21190;58.750;17.004;2023-04-28T13:25:10;1.95;;;0.30;;
34984;SDS011;21190;58.750;17.004;2023-04-28T13:27:37;1.98;;;0.50;;
34984;SDS011;21190;58.750;17.004;2023-04-28T13:30:08;1.38;;;0.30;;
34984;SDS011;21190;58.750;17.004;2023-04-28T13:32:35;0.30;;;0.30;;
34984;SDS011;21190;58.750;17.004;2023-04-28T13:35:02;1.08;;;0.30;;
34984;SDS011;21190;58.750;17.004;2023-04-28T13:37:29;0.85;;;0.30;;
34984;SDS011;21190;58.750;17.004;2023-04-28T13:39:57;1.27;;;0.40;;
34984;SDS011;21190;58.750;17.004;2023-04-28T13:42:24;0.55;;;0.40;;
34984;SDS011;21190;58.750;17.004;2023-04-28T13:44:51;0.50;;;0.30;;
34984;SDS011;21190;58.750;17.004;2023-04-28T13:47:18;0.35;;;0.20;;
34984;SDS011;21190;58.750;17.004;2023-04-28T13:49:45;0.73;;;0.20;;
34984;SDS011;21190;58.750;17.004;2023-04-28T13:52:13;2.75;;;0.30;;
34984;SDS011;21190;58.750;17.004;2023-04-28T13:54:40;0.20;;;0.20;;
34984;SDS011;21190;58.750;17.004;2023-04-28T13:57:07;0.65;;;0.20;;
34984;SDS011;21190;58.750;17.004;2023-04-28T13:59:34;1.48;;;0.45;;
34984;SDS011;21190;58.750;17.004;2023-04-28T14:02:01;0.88;;;0.30;;
34984;SDS011;21190;58.750;17.004;2023-04-28T14:04:29;0.40;;;0.20;;
34984;SDS011;21190;58.750;17.004;2023-04-28T14:06:56;0.95;;;0.35;;
34984;SDS011;21190;58.750;17.004;2023-04-28T14:09:23;2.92;;;0.50;;
34984;SDS011;21190;58.750;17.004;2023-04-28T14:11:50;5.57;;;0.70;;
34984;SDS011;21190;58.750;17.004;2023-04-28T14:14:17;6.65;;;0.38;;
34984;SDS011;21190;58.750;17.004;2023-04-28T14:16:45;2.80;;;0.28;;
34984;SDS011;21190;58.750;17.004;2023-04-28T14:19:13;0.47;;;0.20;;
34984;SDS011;21190;58.750;17.004;2023-04-28T14:21:42;0.43;;;0.43;;
34984;SDS011;21190;58.750;17.004;2023-04-28T14:24:09;2.42;;;0.30;;
34984;SDS011;21190;58.750;17.004;2023-04-28T14:26:36;0.30;;;0.28;;
34984;SDS011;21190;58.750;17.004;2023-04-28T14:29:03;0.88;;;0.38;;
34984;SDS011;21190;58.750;17.004;2023-04-28T14:31:30;0.30;;;0.20;;
34984;SDS011;21190;58.750;17.004;2023-04-28T14:33:57;0.43;;;0.17;;
34984;SDS011;21190;58.750;17.004;2023-04-28T14:36:24;6.80;;;0.30;;
34984;SDS011;21190;58.750;17.004;2023-04-28T14:38:52;0.57;;;0.20;;
34984;SDS011;21190;58.750;17.004;2023-04-28T14:41:19;0.20;;;0.20;;
34984;SDS011;21190;58.750;17.004;2023-04-28T14:43:46;0.68;;;0.43;;
34984;SDS011;21190;58.750;17.004;2023-04-28T14:46:13;0.60;;;0.28;;
34984;SDS011;21190;58.750;17.004;2023-04-28T14:48:42;0.45;;;0.30;;
34984;SDS011;21190;58.750;17.004;2023-04-28T14:51:09;0.30;;;0.30;;
34984;SDS011;21190;58.750;17.004;2023-04-28T14:53:36;2.55;;;1.63;;
34984;SDS011;21190;58.750;17.004;2023-04-28T14:56:04;1.13;;;0.30;;
34984;SDS011;21190;58.750;17.004;2023-04-28T14:58:44;0.82;;;0.60;;
34984;SDS011;21190;58.750;17.004;2023-04-28T15:01:11;0.40;;;0.20;;